createdAt,value
2019-01-20T00:00:45.095Z,-6.10
2019-01-20T00:03:46.022Z,-6.10
2019-01-20T00:06:33.883Z,-6.20
2019-01-20T00:09:21.649Z,-6.10
2019-01-20T00:12:09.581Z,-6.20
2019-01-20T00:14:57.517Z,-6.20
2019-01-20T00:17:45.213Z,-6.20
2019-01-20T00:20:33.109Z,-6.20
2019-01-20T00:23:20.651Z,-6.20
2019-01-20T00:26:08.534Z,-6.20
2019-01-20T00:28:56.432Z,-6.30
2019-01-20T00:31:44.505Z,-6.30
2019-01-20T00:34:32.364Z,-6.30
2019-01-20T00:37:20.057Z,-6.30
2019-01-20T00:40:16.204Z,-6.30
2019-01-20T00:43:03.867Z,-6.20
2019-01-20T00:45:51.660Z,-6.10
2019-01-20T00:48:39.436Z,-6.10
2019-01-20T00:51:27.216Z,-6.10
2019-01-20T00:54:15.161Z,-6.20
2019-01-20T00:57:02.997Z,-6.30
2019-01-20T00:59:51.314Z,-6.30
2019-01-20T01:02:39.270Z,-6.40
2019-01-20T01:05:27.614Z,-6.40
2019-01-20T01:08:15.586Z,-6.40
2019-01-20T01:11:03.453Z,-6.30
2019-01-20T01:13:51.018Z,-6.20
2019-01-20T01:16:38.910Z,-6.20
2019-01-20T01:19:26.717Z,-6.20
2019-01-20T01:22:14.546Z,-6.20
2019-01-20T01:25:02.481Z,-6.00
2019-01-20T01:27:50.436Z,-6.00
2019-01-20T01:30:38.169Z,-5.90
2019-01-20T01:33:25.974Z,-6.00
2019-01-20T01:36:13.822Z,-6.10
2019-01-20T01:39:01.796Z,-6.30
2019-01-20T01:41:49.558Z,-6.40
2019-01-20T01:44:37.728Z,-6.50
2019-01-20T01:47:25.563Z,-6.60
2019-01-20T01:50:14.784Z,-6.60
2019-01-20T01:53:02.648Z,-6.40
2019-01-20T01:55:50.336Z,-6.40
2019-01-20T01:58:38.318Z,-6.40
2019-01-20T02:01:25.886Z,-6.40
2019-01-20T02:04:13.921Z,-6.40
2019-01-20T02:07:02.145Z,-6.30
2019-01-20T02:09:50.077Z,-6.20
2019-01-20T02:12:37.745Z,-6.30
2019-01-20T02:15:25.554Z,-6.30
2019-01-20T02:18:13.683Z,-6.20
2019-01-20T02:21:01.659Z,-6.30
2019-01-20T02:23:49.348Z,-6.30
2019-01-20T02:26:37.082Z,-6.20
2019-01-20T02:29:24.990Z,-6.30
2019-01-20T02:32:12.815Z,-6.40
2019-01-20T02:35:00.413Z,-6.50
2019-01-20T02:37:48.237Z,-6.40
2019-01-20T02:40:36.222Z,-6.50
2019-01-20T02:43:24.196Z,-6.50
2019-01-20T02:46:12.255Z,-6.50
2019-01-20T02:49:00.132Z,-6.30
2019-01-20T02:51:48.119Z,-6.20
2019-01-20T02:54:35.921Z,-6.20
2019-01-20T02:57:23.675Z,-6.10
2019-01-20T03:00:14.666Z,-6.00
2019-01-20T03:03:02.740Z,-6.10
2019-01-20T03:05:50.516Z,-6.20
2019-01-20T03:08:38.326Z,-6.00
2019-01-20T03:11:26.181Z,-6.00
2019-01-20T03:14:14.367Z,-5.90
2019-01-20T03:17:02.273Z,-5.80
2019-01-20T03:19:50.224Z,-5.80
2019-01-20T03:22:38.311Z,-5.80
2019-01-20T03:25:26.132Z,-5.70
2019-01-20T03:28:13.908Z,-5.70
2019-01-20T03:31:01.813Z,-5.60
2019-01-20T03:33:49.668Z,-5.50
2019-01-20T03:36:37.766Z,-5.50
2019-01-20T03:39:25.701Z,-5.50
2019-01-20T03:42:13.680Z,-5.60
2019-01-20T03:45:01.761Z,-5.80
2019-01-20T03:47:49.983Z,-5.70
2019-01-20T03:50:37.721Z,-5.50
2019-01-20T03:53:25.436Z,-5.40
2019-01-20T03:56:13.013Z,-5.40
2019-01-20T03:59:00.777Z,-5.50
2019-01-20T04:01:48.303Z,-5.60
2019-01-20T04:04:36.177Z,-5.60
2019-01-20T04:07:24.133Z,-5.60
2019-01-20T04:10:16.435Z,-5.50
2019-01-20T04:13:04.669Z,-5.50
2019-01-20T04:15:52.261Z,-5.40
2019-01-20T04:18:39.840Z,-5.40
2019-01-20T04:21:27.741Z,-5.40
2019-01-20T04:24:15.671Z,-5.40
2019-01-20T04:27:03.589Z,-5.50
2019-01-20T04:29:51.301Z,-5.50
2019-01-20T04:32:39.173Z,-5.60
2019-01-20T04:35:27.178Z,-5.80
2019-01-20T04:38:15.061Z,-5.90
2019-01-20T04:41:02.640Z,-6.00
2019-01-20T04:43:50.558Z,-6.00
2019-01-20T04:46:38.268Z,-5.90
2019-01-20T04:49:26.208Z,-5.70
2019-01-20T04:52:14.128Z,-5.50
2019-01-20T04:55:02.097Z,-5.50
2019-01-20T04:57:51.738Z,-5.40
2019-01-20T05:00:39.397Z,-5.20
2019-01-20T05:03:27.421Z,-5.10
2019-01-20T05:06:15.226Z,-5.00
2019-01-20T05:09:04.025Z,-5.00
2019-01-20T05:11:51.513Z,-4.90
2019-01-20T05:14:39.218Z,-4.80
2019-01-20T05:17:27.107Z,-4.70
2019-01-20T05:20:15.604Z,-4.70
2019-01-20T05:23:03.157Z,-4.60
2019-01-20T05:25:50.942Z,-4.60
2019-01-20T05:28:38.585Z,-4.50
2019-01-20T05:31:26.620Z,-4.40
2019-01-20T05:34:14.492Z,-4.40
2019-01-20T05:37:02.452Z,-4.30
2019-01-20T05:39:50.302Z,-4.30
2019-01-20T05:42:45.669Z,-4.50
2019-01-20T05:45:28.439Z,-4.40
2019-01-20T05:48:16.081Z,-4.40
2019-01-20T05:51:04.084Z,-4.40
2019-01-20T05:53:51.779Z,-4.50
2019-01-20T05:56:39.437Z,-4.50
2019-01-20T05:59:27.257Z,-4.60
2019-01-20T06:02:14.801Z,-4.60
2019-01-20T06:05:02.611Z,-4.60
2019-01-20T06:07:50.605Z,-4.70
2019-01-20T06:10:38.621Z,-4.80
2019-01-20T06:13:26.536Z,-4.80
2019-01-20T06:16:14.492Z,-5.00
2019-01-20T06:19:02.460Z,-5.10
2019-01-20T06:21:50.056Z,-5.20
2019-01-20T06:24:38.110Z,-5.30
2019-01-20T06:27:26.193Z,-5.30
2019-01-20T06:30:31.122Z,-5.30
2019-01-20T06:33:18.956Z,-5.10
2019-01-20T06:36:06.897Z,-5.10
2019-01-20T06:38:55.008Z,-5.20
2019-01-20T06:41:42.788Z,-5.10
2019-01-20T06:44:30.589Z,-5.30
2019-01-20T06:47:18.468Z,-5.50
2019-01-20T06:50:09.716Z,-5.50
2019-01-20T06:52:57.551Z,-5.60
2019-01-20T06:55:45.314Z,-5.60
2019-01-20T06:58:32.992Z,-5.70
2019-01-20T07:01:20.607Z,-5.40
2019-01-20T07:04:08.579Z,-5.20
2019-01-20T07:06:56.521Z,-5.20
2019-01-20T07:09:44.356Z,-5.20
2019-01-20T07:12:32.217Z,-5.10
2019-01-20T07:15:22.037Z,-5.00
2019-01-20T07:18:09.675Z,-4.90
2019-01-20T07:20:57.681Z,-5.00
2019-01-20T07:23:45.753Z,-4.90
2019-01-20T07:26:33.904Z,-4.90
2019-01-20T07:29:21.569Z,-4.70
2019-01-20T07:32:09.235Z,-4.60
2019-01-20T07:34:56.853Z,-4.60
2019-01-20T07:37:45.135Z,-4.50
2019-01-20T07:40:32.889Z,-4.50
2019-01-20T07:43:20.849Z,-4.50
2019-01-20T07:46:08.785Z,-4.40
2019-01-20T07:48:56.520Z,-4.40
2019-01-20T07:51:44.209Z,-4.50
2019-01-20T07:54:32.295Z,-4.60
2019-01-20T07:57:20.337Z,-4.60
2019-01-20T08:00:17.013Z,-4.40
2019-01-20T08:03:04.516Z,-4.10
2019-01-20T08:05:52.601Z,-3.90
2019-01-20T08:08:40.536Z,-3.60
2019-01-20T08:11:28.742Z,-3.50
2019-01-20T08:14:17.092Z,-3.40
2019-01-20T08:17:05.328Z,-3.30
2019-01-20T08:19:53.213Z,-3.20
2019-01-20T08:22:40.907Z,-3.00
2019-01-20T08:25:28.762Z,-2.90
2019-01-20T08:28:16.672Z,-2.80
2019-01-20T08:31:04.444Z,-2.60
2019-01-20T08:33:52.144Z,-2.50
2019-01-20T08:36:40.088Z,-2.30
2019-01-20T08:39:28.434Z,-2.20
2019-01-20T08:42:16.037Z,-2.20
2019-01-20T08:45:07.225Z,-2.00
2019-01-20T08:47:57.995Z,-1.90
2019-01-20T08:50:45.744Z,-1.70
2019-01-20T08:53:33.599Z,-1.60
2019-01-20T08:56:21.729Z,-1.50
2019-01-20T08:59:09.644Z,-1.40
2019-01-20T09:01:57.604Z,-1.30
2019-01-20T09:04:45.578Z,-1.10
2019-01-20T09:07:33.306Z,-1.00
2019-01-20T09:10:23.584Z,-1.10
2019-01-20T09:13:11.561Z,-1.00
2019-01-20T09:15:59.305Z,-1.00
2019-01-20T09:18:47.512Z,-1.10
2019-01-20T09:21:35.330Z,-1.20
2019-01-20T09:24:23.037Z,-1.10
2019-01-20T09:27:10.961Z,-1.10
2019-01-20T09:29:59.204Z,-0.90
2019-01-20T09:32:46.825Z,-0.80
2019-01-20T09:35:34.813Z,-0.70
2019-01-20T09:38:22.732Z,-0.70
2019-01-20T09:41:10.614Z,-0.60
2019-01-20T09:43:58.215Z,-0.60
2019-01-20T09:46:46.129Z,-0.50
2019-01-20T09:49:34.077Z,-0.40
2019-01-20T09:52:22.748Z,-0.40
2019-01-20T09:55:12.010Z,-0.40
2019-01-20T09:57:59.765Z,-0.60
2019-01-20T10:00:47.501Z,-0.60
2019-01-20T10:03:35.407Z,-0.40
2019-01-20T10:06:23.228Z,-0.40
2019-01-20T10:09:11.062Z,-0.50
2019-01-20T10:11:58.767Z,-0.40
2019-01-20T10:14:46.809Z,-0.30
2019-01-20T10:17:34.696Z,-0.30
2019-01-20T10:20:30.925Z,-0.10
2019-01-20T10:23:19.405Z,0.00
2019-01-20T10:26:07.365Z,0.10
2019-01-20T10:28:55.059Z,0.30
2019-01-20T10:31:43.097Z,0.40
2019-01-20T10:34:31.344Z,0.20
2019-01-20T10:37:19.504Z,0.10
2019-01-20T10:40:08.271Z,0.00
2019-01-20T10:42:56.280Z,0.00
2019-01-20T10:45:44.397Z,-0.20
2019-01-20T10:48:32.414Z,-0.20
2019-01-20T10:51:20.277Z,-0.40
2019-01-20T10:54:08.340Z,-0.40
2019-01-20T10:56:56.543Z,-0.30
2019-01-20T10:59:44.568Z,-0.20
2019-01-20T11:02:32.257Z,-0.10
2019-01-20T11:05:24.586Z,-0.10
2019-01-20T11:08:09.881Z,0.30
2019-01-20T11:10:57.778Z,0.40
2019-01-20T11:13:45.308Z,0.50
2019-01-20T11:16:33.243Z,0.60
2019-01-20T11:19:21.316Z,0.80
2019-01-20T11:22:09.057Z,0.90
2019-01-20T11:24:56.776Z,1.10
2019-01-20T11:27:44.530Z,1.20
2019-01-20T11:30:45.594Z,1.10
2019-01-20T11:33:33.718Z,1.20
2019-01-20T11:36:21.800Z,1.50
2019-01-20T11:39:10.617Z,1.70
2019-01-20T11:41:58.484Z,1.70
2019-01-20T11:44:46.344Z,1.60
2019-01-20T11:47:41.772Z,1.80
2019-01-20T11:50:25.019Z,1.70
2019-01-20T11:53:13.266Z,1.70
2019-01-20T11:56:01.847Z,1.70
2019-01-20T11:58:49.498Z,1.70
2019-01-20T12:01:44.509Z,1.80
2019-01-20T12:04:32.845Z,1.90
2019-01-20T12:07:21.038Z,1.90
2019-01-20T12:10:10.632Z,1.90
2019-01-20T12:13:06.190Z,2.00
2019-01-20T12:15:54.139Z,2.00
2019-01-20T12:18:44.308Z,2.00
2019-01-20T12:21:31.912Z,2.00
2019-01-20T12:24:19.586Z,1.90
2019-01-20T12:27:07.484Z,1.70
2019-01-20T12:29:58.321Z,1.60
2019-01-20T12:32:46.240Z,1.60
2019-01-20T12:35:33.932Z,1.60
2019-01-20T12:38:21.770Z,1.50
2019-01-20T12:41:09.432Z,1.30
2019-01-20T12:43:57.243Z,1.30
2019-01-20T12:46:44.841Z,1.20
2019-01-20T12:49:33.206Z,1.00
2019-01-20T12:52:24.149Z,0.80
2019-01-20T12:55:15.314Z,0.80
2019-01-20T12:58:03.645Z,0.90
2019-01-20T13:00:54.437Z,1.10
2019-01-20T13:03:42.170Z,1.00
2019-01-20T13:06:30.530Z,1.00
2019-01-20T13:09:18.948Z,1.00
2019-01-20T13:12:07.771Z,0.90
2019-01-20T13:14:55.516Z,0.90
2019-01-20T13:17:43.048Z,0.80
2019-01-20T13:20:34.092Z,0.90
2019-01-20T13:23:22.091Z,0.90
2019-01-20T13:26:09.913Z,0.90
2019-01-20T13:28:58.257Z,0.90
2019-01-20T13:31:46.169Z,1.00
2019-01-20T13:34:34.309Z,0.90
2019-01-20T13:37:22.109Z,0.90
2019-01-20T13:40:16.035Z,0.90
2019-01-20T13:43:04.173Z,0.90
2019-01-20T13:45:51.678Z,0.90
2019-01-20T13:48:39.549Z,0.80
2019-01-20T13:51:27.176Z,0.70
2019-01-20T13:54:15.208Z,0.70
2019-01-20T13:57:03.081Z,0.60
2019-01-20T13:59:51.094Z,0.50
2019-01-20T14:02:39.368Z,0.50
2019-01-20T14:05:27.112Z,0.50
2019-01-20T14:08:14.959Z,0.60
2019-01-20T14:11:03.393Z,0.60
2019-01-20T14:13:51.695Z,0.60
2019-01-20T14:16:39.805Z,0.70
2019-01-20T14:19:29.087Z,0.70
2019-01-20T14:22:24.489Z,0.80
2019-01-20T14:25:17.375Z,0.80
2019-01-20T14:28:06.715Z,0.70
2019-01-20T14:30:55.234Z,0.60
2019-01-20T14:33:43.268Z,0.60
2019-01-20T14:36:31.297Z,0.50
2019-01-20T14:39:19.332Z,0.30
2019-01-20T14:42:07.067Z,0.20
2019-01-20T14:45:00.905Z,0.20
2019-01-20T14:47:44.931Z,0.10
2019-01-20T14:50:32.733Z,0.00
2019-01-20T14:53:20.290Z,0.10
2019-01-20T14:56:08.321Z,0.10
2019-01-20T14:58:56.291Z,0.10
2019-01-20T15:01:44.345Z,0.10
2019-01-20T15:04:32.122Z,0.10
2019-01-20T15:07:19.757Z,0.10
2019-01-20T15:10:10.793Z,0.00
2019-01-20T15:12:58.435Z,0.00
2019-01-20T15:15:46.342Z,0.10
2019-01-20T15:18:34.150Z,0.10
2019-01-20T15:21:22.100Z,0.20
2019-01-20T15:24:10.058Z,0.10
2019-01-20T15:26:57.836Z,0.10
2019-01-20T15:29:45.915Z,0.00
2019-01-20T15:32:34.146Z,0.10
2019-01-20T15:35:22.191Z,0.00
2019-01-20T15:38:10.060Z,-0.10
2019-01-20T15:40:57.715Z,-0.10
2019-01-20T15:43:45.480Z,-0.10
2019-01-20T15:46:33.544Z,-0.10
2019-01-20T15:49:21.309Z,-0.20
2019-01-20T15:52:09.432Z,-0.10
2019-01-20T15:54:57.173Z,-0.10
2019-01-20T15:57:45.060Z,-0.20
2019-01-20T16:00:33.071Z,-0.20
2019-01-20T16:03:20.708Z,-0.20
2019-01-20T16:06:08.738Z,-0.20
2019-01-20T16:08:57.034Z,-0.20
2019-01-20T16:11:45.068Z,-0.20
2019-01-20T16:14:32.912Z,-0.20
2019-01-20T16:17:20.793Z,-0.20
2019-01-20T16:20:19.329Z,-0.30
2019-01-20T16:23:07.219Z,-0.40
2019-01-20T16:25:55.267Z,-0.40
2019-01-20T16:28:43.357Z,-0.40
2019-01-20T16:31:32.033Z,-0.30
2019-01-20T16:34:20.033Z,-0.30
2019-01-20T16:37:08.047Z,-0.30
2019-01-20T16:39:56.148Z,-0.30
2019-01-20T16:42:45.992Z,-0.40
2019-01-20T16:45:42.082Z,-0.40
2019-01-20T16:48:27.424Z,-0.30
2019-01-20T16:51:15.112Z,-0.30
2019-01-20T16:54:02.802Z,-0.40
2019-01-20T16:56:50.667Z,-0.40
2019-01-20T16:59:38.309Z,-0.30
2019-01-20T17:02:26.106Z,-0.30
2019-01-20T17:05:14.551Z,-0.20
2019-01-20T17:08:02.757Z,-0.30
2019-01-20T17:10:50.407Z,-0.30
2019-01-20T17:13:38.963Z,-0.30
2019-01-20T17:16:26.615Z,-0.30
2019-01-20T17:19:17.688Z,-0.30
2019-01-20T17:22:05.780Z,-0.30
2019-01-20T17:24:53.748Z,-0.30
2019-01-20T17:27:41.927Z,-0.20
2019-01-20T17:30:32.563Z,-0.20
2019-01-20T17:33:20.456Z,-0.30
2019-01-20T17:36:27.884Z,-0.30
2019-01-20T17:39:15.786Z,-0.20
2019-01-20T17:42:04.082Z,-0.30
2019-01-20T17:44:51.985Z,-0.40
2019-01-20T17:47:39.732Z,-0.30
2019-01-20T17:50:30.351Z,-0.50
2019-01-20T17:53:18.023Z,-0.60
2019-01-20T17:56:05.885Z,-0.60
2019-01-20T17:58:53.617Z,-0.60
2019-01-20T18:01:41.799Z,-0.60
2019-01-20T18:04:29.681Z,-0.50
2019-01-20T18:07:17.603Z,-0.50
2019-01-20T18:10:11.372Z,-0.50
2019-01-20T18:12:59.511Z,-0.50
2019-01-20T18:15:54.073Z,-0.40
2019-01-20T18:18:37.543Z,-0.50
2019-01-20T18:21:25.248Z,-0.50
2019-01-20T18:24:13.122Z,-0.60
2019-01-20T18:27:01.185Z,-0.60
2019-01-20T18:29:49.312Z,-0.50
2019-01-20T18:32:37.228Z,-0.60
2019-01-20T18:35:26.448Z,-0.70
2019-01-20T18:38:14.419Z,-0.70
2019-01-20T18:41:02.205Z,-0.70
2019-01-20T18:43:50.085Z,-0.70
2019-01-20T18:46:38.145Z,-0.70
2019-01-20T18:49:25.784Z,-0.80
2019-01-20T18:52:13.583Z,-0.80
2019-01-20T18:55:01.449Z,-0.70
2019-01-20T18:57:49.298Z,-0.70
2019-01-20T19:00:43.009Z,-0.70
2019-01-20T19:03:31.127Z,-0.80
2019-01-20T19:06:18.970Z,-0.80
2019-01-20T19:09:07.189Z,-0.90
2019-01-20T19:11:54.838Z,-0.90
2019-01-20T19:14:42.596Z,-0.90
2019-01-20T19:17:30.584Z,-1.00
2019-01-20T19:20:21.186Z,-1.00
2019-01-20T19:23:08.776Z,-1.00
2019-01-20T19:25:56.532Z,-1.00
2019-01-20T19:28:44.283Z,-1.00
2019-01-20T19:31:32.299Z,-1.00
2019-01-20T19:34:20.362Z,-1.10
2019-01-20T19:37:08.089Z,-1.10
2019-01-20T19:39:55.886Z,-1.10
2019-01-20T19:42:43.938Z,-1.10
2019-01-20T19:45:31.856Z,-1.10
2019-01-20T19:48:20.164Z,-1.10
2019-01-20T19:51:08.489Z,-1.10
2019-01-20T19:53:56.341Z,-1.10
2019-01-20T19:56:44.086Z,-1.10
2019-01-20T19:59:31.743Z,-1.10
2019-01-20T20:02:19.672Z,-1.10
2019-01-20T20:05:13.177Z,-1.10
2019-01-20T20:08:01.059Z,-1.00
2019-01-20T20:10:48.824Z,-1.10
2019-01-20T20:13:36.612Z,-1.10
2019-01-20T20:16:24.334Z,-1.10
2019-01-20T20:19:11.991Z,-1.10
2019-01-20T20:21:59.928Z,-1.00
2019-01-20T20:24:47.511Z,-1.10
2019-01-20T20:27:35.145Z,-1.10
2019-01-20T20:30:28.302Z,-1.10
2019-01-20T20:33:16.274Z,-1.30
2019-01-20T20:36:04.503Z,-1.40
2019-01-20T20:38:52.132Z,-1.50
2019-01-20T20:41:40.070Z,-1.60
2019-01-20T20:44:28.044Z,-1.70
2019-01-20T20:47:15.755Z,-1.60
2019-01-20T20:50:04.957Z,-1.60
2019-01-20T20:52:52.622Z,-1.60
2019-01-20T20:55:40.550Z,-1.50
2019-01-20T20:58:28.479Z,-0.70
2019-01-20T21:01:16.464Z,-1.50
2019-01-20T21:04:04.158Z,-1.50
2019-01-20T21:06:51.971Z,-1.50
2019-01-20T21:09:40.337Z,-1.50
2019-01-20T21:12:28.262Z,-1.40
2019-01-20T21:15:17.033Z,-1.40
2019-01-20T21:18:04.784Z,-1.30
2019-01-20T21:20:52.802Z,-1.30
2019-01-20T21:23:40.570Z,-1.30
2019-01-20T21:26:28.083Z,-1.20
2019-01-20T21:29:16.133Z,-1.20
2019-01-20T21:32:04.274Z,-1.20
2019-01-20T21:34:51.927Z,-1.30
2019-01-20T21:37:39.638Z,-1.30
2019-01-20T21:40:27.711Z,-1.30
2019-01-20T21:43:15.821Z,-1.30
2019-01-20T21:46:04.208Z,-1.30
2019-01-20T21:48:52.167Z,-1.40
2019-01-20T21:51:40.089Z,-1.50
2019-01-20T21:54:28.228Z,-1.60
2019-01-20T21:57:16.109Z,-1.50
2019-01-20T22:00:06.981Z,-1.50
2019-01-20T22:02:54.629Z,-1.50
2019-01-20T22:05:42.372Z,-1.60
2019-01-20T22:08:30.428Z,-1.60
2019-01-20T22:11:18.270Z,-1.60
2019-01-20T22:14:06.123Z,-1.70
2019-01-20T22:16:53.608Z,-1.70
2019-01-20T22:19:41.233Z,-1.70
2019-01-20T22:22:29.137Z,-1.70
2019-01-20T22:25:16.932Z,-1.70
2019-01-20T22:28:05.673Z,-1.70
2019-01-20T22:30:53.369Z,-1.70
2019-01-20T22:33:41.161Z,-1.80
2019-01-20T22:36:28.958Z,-1.70
2019-01-20T22:39:16.969Z,-1.70
2019-01-20T22:42:04.876Z,-1.80
2019-01-20T22:44:52.600Z,-1.80
2019-01-20T22:47:40.322Z,-1.80
2019-01-20T22:50:28.435Z,-1.80
2019-01-20T22:53:16.197Z,-1.80
2019-01-20T22:56:04.012Z,-1.80
2019-01-20T22:58:51.699Z,-1.70
2019-01-20T23:01:41.320Z,-1.70
2019-01-20T23:04:28.936Z,-1.70
2019-01-20T23:07:16.928Z,-1.70
2019-01-20T23:10:06.439Z,-1.70
2019-01-20T23:12:54.179Z,-1.70
2019-01-20T23:15:42.004Z,-1.70
2019-01-20T23:18:29.825Z,-1.70
2019-01-20T23:21:17.493Z,-1.70
2019-01-20T23:24:05.529Z,-1.70
2019-01-20T23:26:53.352Z,-1.70
2019-01-20T23:29:41.180Z,-1.70
2019-01-20T23:32:29.204Z,-1.70
2019-01-20T23:35:16.878Z,-1.80
2019-01-20T23:38:04.997Z,-1.90
2019-01-20T23:40:52.858Z,-1.90
2019-01-20T23:43:40.664Z,-2.00
2019-01-20T23:46:28.804Z,-2.10
2019-01-20T23:49:16.700Z,-2.20
2019-01-20T23:52:04.912Z,-2.40
2019-01-20T23:54:52.792Z,-2.60
2019-01-20T23:57:40.621Z,-2.70
